Airfield :
LOGIN :

Register | Disclaimer

   EN    FR    IT 

 










Legend :    VFR   Marginal VFR   IFR   Intensive IFR   Very Intensive IFR
Visi :
Ceiling :
>= 8 km
>= 3000ft
5 to 8 km
1000 to 3000 ft
1500m to 5 km
500 to 1000 ft
800 to 1500m
200 to 500 ft
< 800m
< 200 ft
Symbols :   Thunderstorms  Fog  Heavy snow  Heavy precipitations  Wind > 20 kt
SIGMETs :     Misc.  Thunderstorms  Icing  Turbulence  Mountain Waves  Volcanic Ashes






- Airport Elevation : 49 ft
- IATA code : AOI


LIPY - Ancona Falconara

CURRENT METAR :
  • 250220Z AUTO VRB02KT 9999 BKN036/// BKN046/// 18/17 Q1011

EXPIRED METARs :
  • 250150Z AUTO 19002KT 9999 FEW047/// 18/17 Q1011
  • 250120Z AUTO VRB02KT 9999 FEW240/// 18/17 Q1011
  • 250050Z AUTO 22001KT 9999 FEW035/// 18/17 Q1011
  • 250020Z AUTO 20003KT 9999 FEW023/// 19/17 Q1011
  • 242350Z AUTO 18002KT 9999 FEW069/// 19/18 Q1011
  • 242320Z AUTO 19002KT 9999 SCT069/// 19/18 Q1011
  • 242250Z AUTO VRB02KT 9999 SCT072/// 20/18 Q1011
  • 242150Z AUTO 20003KT 9999 FEW003/// 20/19 Q1011

TAF TAF LIPY
Valid from the 25 at 00:00 until the 26 at 00:00 UTC


242300Z 2500/2524 VRB05KT 9999 SCT045
BECMG 2508/2510 05010KT
TEMPO 2515/2522 TSRA
BECMG 2516/2518 VRB05KT



MET'MAP, your aeronautical weather chart ! - Copyright ORBIFLY December 2007 - Disclaimer

ORBIFLY MET'MAP TEAM :

Programming & Development : Alexandra Zaïnal
Original concept : Baudouin d'Aumeries
Technical & hardware support : Manuel Goepfert
Assistance : Marc-Olivier Méhu




SOURCES & CREDITS :

   NOAA